sensor_id;sensor_type;location;lat;lon;timestamp;temperature;humidity
61841;DHT22;47773;53.174;6.614;2023-05-07T00:02:06;12.60;99.90
61841;DHT22;47773;53.174;6.614;2023-05-07T00:04:33;12.60;99.90
61841;DHT22;47773;53.174;6.614;2023-05-07T00:07:02;12.50;99.90
61841;DHT22;47773;53.174;6.614;2023-05-07T00:09:28;12.50;99.90
61841;DHT22;47773;53.174;6.614;2023-05-07T00:11:54;12.50;99.90
61841;DHT22;47773;53.174;6.614;2023-05-07T00:14:20;12.50;99.90
61841;DHT22;47773;53.174;6.614;2023-05-07T00:16:46;12.40;99.90
61841;DHT22;47773;53.174;6.614;2023-05-07T00:19:12;12.40;99.90
61841;DHT22;47773;53.174;6.614;2023-05-07T00:21:37;12.40;99.90
61841;DHT22;47773;53.174;6.614;2023-05-07T00:24:03;12.40;99.90
61841;DHT22;47773;53.174;6.614;2023-05-07T00:26:29;12.40;99.90
61841;DHT22;47773;53.174;6.614;2023-05-07T00:28:55;12.30;99.90
61841;DHT22;47773;53.174;6.614;2023-05-07T00:31:21;12.30;99.90
61841;DHT22;47773;53.174;6.614;2023-05-07T00:33:46;12.30;99.90
61841;DHT22;47773;53.174;6.614;2023-05-07T00:36:12;12.30;99.90
61841;DHT22;47773;53.174;6.614;2023-05-07T00:38:38;12.30;99.90
61841;DHT22;47773;53.174;6.614;2023-05-07T00:41:03;12.20;99.90
61841;DHT22;47773;53.174;6.614;2023-05-07T00:43:29;12.20;99.90
61841;DHT22;47773;53.174;6.614;2023-05-07T00:45:55;12.20;99.90
61841;DHT22;47773;53.174;6.614;2023-05-07T00:48:21;12.20;99.90
61841;DHT22;47773;53.174;6.614;2023-05-07T00:50:47;12.10;99.90
61841;DHT22;47773;53.174;6.614;2023-05-07T00:53:14;12.10;99.90
61841;DHT22;47773;53.174;6.614;2023-05-07T00:55:39;12.10;99.90
61841;DHT22;47773;53.174;6.614;2023-05-07T00:58:05;12.10;99.90
61841;DHT22;47773;53.174;6.614;2023-05-07T01:00:31;12.10;99.90
61841;DHT22;47773;53.174;6.614;2023-05-07T01:02:57;12.00;99.90
61841;DHT22;47773;53.174;6.614;2023-05-07T01:05:23;12.00;99.90
61841;DHT22;47773;53.174;6.614;2023-05-07T01:07:51;12.00;99.90
61841;DHT22;47773;53.174;6.614;2023-05-07T01:10:19;12.00;99.90
61841;DHT22;47773;53.174;6.614;2023-05-07T01:12:46;12.00;99.90
61841;DHT22;47773;53.174;6.614;2023-05-07T01:15:14;12.00;99.90
61841;DHT22;47773;53.174;6.614;2023-05-07T01:17:41;11.90;99.90
61841;DHT22;47773;53.174;6.614;2023-05-07T01:20:08;11.90;99.90
61841;DHT22;47773;53.174;6.614;2023-05-07T01:22:37;11.90;99.90
61841;DHT22;47773;53.174;6.614;2023-05-07T01:25:04;11.90;99.90
61841;DHT22;47773;53.174;6.614;2023-05-07T01:27:30;11.90;99.90
61841;DHT22;47773;53.174;6.614;2023-05-07T01:29:55;11.80;99.90
61841;DHT22;47773;53.174;6.614;2023-05-07T01:32:34;11.80;99.90
61841;DHT22;47773;53.174;6.614;2023-05-07T01:35:03;11.80;99.90
61841;DHT22;47773;53.174;6.614;2023-05-07T01:37:30;11.80;99.90
61841;DHT22;47773;53.174;6.614;2023-05-07T01:39:56;11.80;99.90
61841;DHT22;47773;53.174;6.614;2023-05-07T01:42:23;11.80;99.90
61841;DHT22;47773;53.174;6.614;2023-05-07T01:44:48;11.80;99.90
61841;DHT22;47773;53.174;6.614;2023-05-07T01:47:14;11.80;99.90
61841;DHT22;47773;53.174;6.614;2023-05-07T01:49:41;11.80;99.90
61841;DHT22;47773;53.174;6.614;2023-05-07T01:52:07;11.70;99.90
61841;DHT22;47773;53.174;6.614;2023-05-07T01:54:33;11.80;99.90
61841;DHT22;47773;53.174;6.614;2023-05-07T01:56:59;11.70;99.90
61841;DHT22;47773;53.174;6.614;2023-05-07T01:59:25;11.70;99.90
61841;DHT22;47773;53.174;6.614;2023-05-07T02:01:51;11.70;99.90
61841;DHT22;47773;53.174;6.614;2023-05-07T02:04:17;11.70;99.90
61841;DHT22;47773;53.174;6.614;2023-05-07T02:06:43;11.70;99.90
61841;DHT22;47773;53.174;6.614;2023-05-07T02:09:08;11.70;99.90
61841;DHT22;47773;53.174;6.614;2023-05-07T02:11:34;11.60;99.90
61841;DHT22;47773;53.174;6.614;2023-05-07T02:14:00;11.60;99.90
61841;DHT22;47773;53.174;6.614;2023-05-07T02:16:25;11.60;99.90
61841;DHT22;47773;53.174;6.614;2023-05-07T02:18:51;11.60;99.90
61841;DHT22;47773;53.174;6.614;2023-05-07T02:21:17;11.60;99.90
61841;DHT22;47773;53.174;6.614;2023-05-07T02:23:43;11.60;99.90
61841;DHT22;47773;53.174;6.614;2023-05-07T02:26:09;11.50;99.90
61841;DHT22;47773;53.174;6.614;2023-05-07T02:28:35;11.50;99.90
61841;DHT22;47773;53.174;6.614;2023-05-07T02:31:04;11.50;99.90
61841;DHT22;47773;53.174;6.614;2023-05-07T02:33:30;11.60;99.90
61841;DHT22;47773;53.174;6.614;2023-05-07T02:35:56;11.60;99.90
61841;DHT22;47773;53.174;6.614;2023-05-07T02:38:22;11.60;99.90
61841;DHT22;47773;53.174;6.614;2023-05-07T02:40:48;11.60;99.90
61841;DHT22;47773;53.174;6.614;2023-05-07T02:43:13;11.60;99.90
61841;DHT22;47773;53.174;6.614;2023-05-07T02:45:39;11.60;99.90
61841;DHT22;47773;53.174;6.614;2023-05-07T02:48:05;11.50;99.90
61841;DHT22;47773;53.174;6.614;2023-05-07T02:50:33;11.50;99.90
61841;DHT22;47773;53.174;6.614;2023-05-07T02:52:59;11.50;99.90
61841;DHT22;47773;53.174;6.614;2023-05-07T02:55:25;11.50;99.90
61841;DHT22;47773;53.174;6.614;2023-05-07T02:57:51;11.50;99.90
61841;DHT22;47773;53.174;6.614;2023-05-07T03:00:18;11.50;99.90
61841;DHT22;47773;53.174;6.614;2023-05-07T03:02:44;11.50;99.90
61841;DHT22;47773;53.174;6.614;2023-05-07T03:05:10;11.50;99.90
61841;DHT22;47773;53.174;6.614;2023-05-07T03:07:36;11.50;99.90
61841;DHT22;47773;53.174;6.614;2023-05-07T03:10:03;11.50;99.90
61841;DHT22;47773;53.174;6.614;2023-05-07T03:12:29;11.40;99.90
61841;DHT22;47773;53.174;6.614;2023-05-07T03:14:55;11.30;99.90
61841;DHT22;47773;53.174;6.614;2023-05-07T03:17:21;11.40;99.90
61841;DHT22;47773;53.174;6.614;2023-05-07T03:19:46;11.30;99.90
61841;DHT22;47773;53.174;6.614;2023-05-07T03:22:12;11.30;99.90
61841;DHT22;47773;53.174;6.614;2023-05-07T03:24:38;11.40;99.90
61841;DHT22;47773;53.174;6.614;2023-05-07T03:27:03;11.40;99.90
61841;DHT22;47773;53.174;6.614;2023-05-07T03:29:29;11.40;99.90
61841;DHT22;47773;53.174;6.614;2023-05-07T03:31:55;11.30;99.90
61841;DHT22;47773;53.174;6.614;2023-05-07T03:34:20;11.40;99.90
61841;DHT22;47773;53.174;6.614;2023-05-07T03:36:50;11.30;99.90
61841;DHT22;47773;53.174;6.614;2023-05-07T03:39:16;11.30;99.90
61841;DHT22;47773;53.174;6.614;2023-05-07T03:41:42;11.30;99.90
61841;DHT22;47773;53.174;6.614;2023-05-07T03:44:07;11.30;99.90
61841;DHT22;47773;53.174;6.614;2023-05-07T03:46:34;11.30;99.90
61841;DHT22;47773;53.174;6.614;2023-05-07T03:48:59;11.30;99.90
61841;DHT22;47773;53.174;6.614;2023-05-07T03:51:25;11.30;99.90
61841;DHT22;47773;53.174;6.614;2023-05-07T03:53:51;11.20;99.90
61841;DHT22;47773;53.174;6.614;2023-05-07T03:56:22;11.20;99.90
61841;DHT22;47773;53.174;6.614;2023-05-07T03:58:48;11.20;99.90
61841;DHT22;47773;53.174;6.614;2023-05-07T04:01:14;11.10;99.90
61841;DHT22;47773;53.174;6.614;2023-05-07T04:03:40;11.10;99.90
61841;DHT22;47773;53.174;6.614;2023-05-07T04:06:05;11.10;99.90
61841;DHT22;47773;53.174;6.614;2023-05-07T04:08:31;11.10;99.90
61841;DHT22;47773;53.174;6.614;2023-05-07T04:10:57;11.00;99.90
61841;DHT22;47773;53.174;6.614;2023-05-07T04:13:24;11.10;99.90
61841;DHT22;47773;53.174;6.614;2023-05-07T04:15:51;11.00;99.90
61841;DHT22;47773;53.174;6.614;2023-05-07T04:18:17;11.10;99.90
61841;DHT22;47773;53.174;6.614;2023-05-07T04:20:43;11.10;99.90
61841;DHT22;47773;53.174;6.614;2023-05-07T04:23:08;11.10;99.90
61841;DHT22;47773;53.174;6.614;2023-05-07T04:25:34;11.10;99.90
61841;DHT22;47773;53.174;6.614;2023-05-07T04:28:00;11.10;99.90
61841;DHT22;47773;53.174;6.614;2023-05-07T04:30:25;11.10;99.90
61841;DHT22;47773;53.174;6.614;2023-05-07T04:32:51;11.10;99.90
61841;DHT22;47773;53.174;6.614;2023-05-07T04:35:18;11.10;99.90
61841;DHT22;47773;53.174;6.614;2023-05-07T04:37:43;11.10;99.90
61841;DHT22;47773;53.174;6.614;2023-05-07T04:40:09;11.10;99.90
61841;DHT22;47773;53.174;6.614;2023-05-07T04:42:35;11.10;99.90
61841;DHT22;47773;53.174;6.614;2023-05-07T04:45:02;11.10;99.90
61841;DHT22;47773;53.174;6.614;2023-05-07T04:47:27;11.00;99.90
61841;DHT22;47773;53.174;6.614;2023-05-07T04:49:53;11.00;99.90
61841;DHT22;47773;53.174;6.614;2023-05-07T04:52:19;11.00;99.90
61841;DHT22;47773;53.174;6.614;2023-05-07T04:54:44;11.00;99.90
61841;DHT22;47773;53.174;6.614;2023-05-07T04:57:10;11.00;99.90
61841;DHT22;47773;53.174;6.614;2023-05-07T04:59:36;11.00;99.90
61841;DHT22;47773;53.174;6.614;2023-05-07T05:02:02;11.10;99.90
61841;DHT22;47773;53.174;6.614;2023-05-07T05:04:29;11.00;99.90
61841;DHT22;47773;53.174;6.614;2023-05-07T05:06:55;11.00;99.90
61841;DHT22;47773;53.174;6.614;2023-05-07T05:09:21;11.00;99.90
61841;DHT22;47773;53.174;6.614;2023-05-07T05:11:46;11.00;99.90
61841;DHT22;47773;53.174;6.614;2023-05-07T05:14:12;10.90;99.90
61841;DHT22;47773;53.174;6.614;2023-05-07T05:16:38;10.90;99.90
61841;DHT22;47773;53.174;6.614;2023-05-07T05:19:03;11.00;99.90
61841;DHT22;47773;53.174;6.614;2023-05-07T05:21:29;11.00;99.90
61841;DHT22;47773;53.174;6.614;2023-05-07T05:23:55;11.00;99.90
61841;DHT22;47773;53.174;6.614;2023-05-07T05:26:21;11.00;99.90
61841;DHT22;47773;53.174;6.614;2023-05-07T05:28:46;10.90;99.90
61841;DHT22;47773;53.174;6.614;2023-05-07T05:31:12;11.00;99.90
61841;DHT22;47773;53.174;6.614;2023-05-07T05:33:38;11.00;99.90
61841;DHT22;47773;53.174;6.614;2023-05-07T05:36:05;10.90;99.90
61841;DHT22;47773;53.174;6.614;2023-05-07T05:38:31;10.90;99.90
61841;DHT22;47773;53.174;6.614;2023-05-07T05:40:57;10.90;99.90
61841;DHT22;47773;53.174;6.614;2023-05-07T05:43:23;11.00;99.90
61841;DHT22;47773;53.174;6.614;2023-05-07T05:45:48;11.00;99.90
61841;DHT22;47773;53.174;6.614;2023-05-07T05:48:14;11.00;99.90
61841;DHT22;47773;53.174;6.614;2023-05-07T05:50:41;11.00;99.90
61841;DHT22;47773;53.174;6.614;2023-05-07T05:53:07;11.00;99.90
61841;DHT22;47773;53.174;6.614;2023-05-07T05:55:32;11.00;99.90
61841;DHT22;47773;53.174;6.614;2023-05-07T05:58:02;11.00;99.90
61841;DHT22;47773;53.174;6.614;2023-05-07T06:00:28;11.00;99.90
61841;DHT22;47773;53.174;6.614;2023-05-07T06:02:54;11.00;99.90
61841;DHT22;47773;53.174;6.614;2023-05-07T06:05:20;11.10;99.90
61841;DHT22;47773;53.174;6.614;2023-05-07T06:07:46;11.10;99.90
61841;DHT22;47773;53.174;6.614;2023-05-07T06:10:11;11.00;99.90
61841;DHT22;47773;53.174;6.614;2023-05-07T06:12:37;11.00;99.90
61841;DHT22;47773;53.174;6.614;2023-05-07T06:15:03;11.00;99.90
61841;DHT22;47773;53.174;6.614;2023-05-07T06:17:29;11.00;99.90
61841;DHT22;47773;53.174;6.614;2023-05-07T06:19:55;11.10;99.90
61841;DHT22;47773;53.174;6.614;2023-05-07T06:22:21;11.10;99.90
61841;DHT22;47773;53.174;6.614;2023-05-07T06:24:47;11.10;99.90
61841;DHT22;47773;53.174;6.614;2023-05-07T06:27:12;11.10;99.90
61841;DHT22;47773;53.174;6.614;2023-05-07T06:29:38;11.10;99.90
61841;DHT22;47773;53.174;6.614;2023-05-07T06:32:08;11.20;99.90
61841;DHT22;47773;53.174;6.614;2023-05-07T06:34:34;11.10;99.90
61841;DHT22;47773;53.174;6.614;2023-05-07T06:37:00;11.20;99.90
61841;DHT22;47773;53.174;6.614;2023-05-07T06:39:25;11.20;99.90
61841;DHT22;47773;53.174;6.614;2023-05-07T06:41:51;11.10;99.90
61841;DHT22;47773;53.174;6.614;2023-05-07T06:44:16;11.20;99.90
61841;DHT22;47773;53.174;6.614;2023-05-07T06:46:42;11.10;99.90
61841;DHT22;47773;53.174;6.614;2023-05-07T06:49:08;11.10;99.90
61841;DHT22;47773;53.174;6.614;2023-05-07T06:51:33;11.10;99.90
61841;DHT22;47773;53.174;6.614;2023-05-07T06:53:59;11.10;99.90
61841;DHT22;47773;53.174;6.614;2023-05-07T06:56:25;11.10;99.90
61841;DHT22;47773;53.174;6.614;2023-05-07T06:58:51;11.20;99.90
61841;DHT22;47773;53.174;6.614;2023-05-07T07:01:16;11.20;99.90
61841;DHT22;47773;53.174;6.614;2023-05-07T07:03:42;11.20;99.90
61841;DHT22;47773;53.174;6.614;2023-05-07T07:06:08;11.20;99.90
61841;DHT22;47773;53.174;6.614;2023-05-07T07:08:33;11.20;99.90
61841;DHT22;47773;53.174;6.614;2023-05-07T07:11:00;11.20;99.90
61841;DHT22;47773;53.174;6.614;2023-05-07T07:13:25;11.20;99.90
61841;DHT22;47773;53.174;6.614;2023-05-07T07:15:51;11.30;99.90
61841;DHT22;47773;53.174;6.614;2023-05-07T07:18:18;11.30;99.90
61841;DHT22;47773;53.174;6.614;2023-05-07T07:20:43;11.30;99.90
61841;DHT22;47773;53.174;6.614;2023-05-07T07:23:10;11.30;99.90
61841;DHT22;47773;53.174;6.614;2023-05-07T07:25:35;11.30;99.90
61841;DHT22;47773;53.174;6.614;2023-05-07T07:28:01;11.30;99.90
61841;DHT22;47773;53.174;6.614;2023-05-07T07:30:27;11.30;99.90
61841;DHT22;47773;53.174;6.614;2023-05-07T07:32:53;11.40;99.90
61841;DHT22;47773;53.174;6.614;2023-05-07T07:35:19;11.40;99.90
61841;DHT22;47773;53.174;6.614;2023-05-07T07:37:44;11.40;99.90
61841;DHT22;47773;53.174;6.614;2023-05-07T07:40:11;11.40;99.90
61841;DHT22;47773;53.174;6.614;2023-05-07T07:42:37;11.40;99.90
61841;DHT22;47773;53.174;6.614;2023-05-07T07:45:03;11.50;99.90
61841;DHT22;47773;53.174;6.614;2023-05-07T07:47:28;11.50;99.90
61841;DHT22;47773;53.174;6.614;2023-05-07T07:49:54;11.60;99.90
61841;DHT22;47773;53.174;6.614;2023-05-07T07:52:20;11.60;99.90
61841;DHT22;47773;53.174;6.614;2023-05-07T07:54:45;11.60;99.90
61841;DHT22;47773;53.174;6.614;2023-05-07T07:57:11;11.70;99.90
61841;DHT22;47773;53.174;6.614;2023-05-07T07:59:37;11.80;99.90
61841;DHT22;47773;53.174;6.614;2023-05-07T08:02:02;11.90;99.90
61841;DHT22;47773;53.174;6.614;2023-05-07T08:04:28;12.00;99.90
61841;DHT22;47773;53.174;6.614;2023-05-07T08:06:54;12.10;99.90
61841;DHT22;47773;53.174;6.614;2023-05-07T08:09:20;12.20;99.90
61841;DHT22;47773;53.174;6.614;2023-05-07T08:11:45;12.20;99.90
61841;DHT22;47773;53.174;6.614;2023-05-07T08:14:11;12.20;99.90
61841;DHT22;47773;53.174;6.614;2023-05-07T08:16:37;12.20;99.90
61841;DHT22;47773;53.174;6.614;2023-05-07T08:19:03;12.20;99.90
61841;DHT22;47773;53.174;6.614;2023-05-07T08:21:28;12.20;99.90
61841;DHT22;47773;53.174;6.614;2023-05-07T08:23:54;12.20;99.90
61841;DHT22;47773;53.174;6.614;2023-05-07T08:26:20;12.30;99.90
61841;DHT22;47773;53.174;6.614;2023-05-07T08:28:45;12.40;99.90
61841;DHT22;47773;53.174;6.614;2023-05-07T08:31:11;12.40;99.90
61841;DHT22;47773;53.174;6.614;2023-05-07T08:33:37;12.40;99.90
61841;DHT22;47773;53.174;6.614;2023-05-07T08:36:04;12.50;99.90
61841;DHT22;47773;53.174;6.614;2023-05-07T08:38:31;12.50;99.90
61841;DHT22;47773;53.174;6.614;2023-05-07T08:40:57;12.50;99.90
61841;DHT22;47773;53.174;6.614;2023-05-07T08:43:26;12.50;99.90
61841;DHT22;47773;53.174;6.614;2023-05-07T08:45:54;12.60;99.90
61841;DHT22;47773;53.174;6.614;2023-05-07T08:48:25;12.60;99.90
61841;DHT22;47773;53.174;6.614;2023-05-07T08:50:50;12.60;99.90
61841;DHT22;47773;53.174;6.614;2023-05-07T08:53:17;12.70;99.90
61841;DHT22;47773;53.174;6.614;2023-05-07T08:55:43;12.70;99.90
61841;DHT22;47773;53.174;6.614;2023-05-07T08:58:08;12.70;99.90
61841;DHT22;47773;53.174;6.614;2023-05-07T09:00:36;12.80;99.90
61841;DHT22;47773;53.174;6.614;2023-05-07T09:03:02;12.80;99.90
61841;DHT22;47773;53.174;6.614;2023-05-07T09:05:28;12.90;99.90
61841;DHT22;47773;53.174;6.614;2023-05-07T09:07:54;13.00;99.90
61841;DHT22;47773;53.174;6.614;2023-05-07T09:10:21;13.00;99.90
61841;DHT22;47773;53.174;6.614;2023-05-07T09:12:47;13.10;99.90
61841;DHT22;47773;53.174;6.614;2023-05-07T09:15:13;13.20;99.90
61841;DHT22;47773;53.174;6.614;2023-05-07T09:17:39;13.40;99.90
61841;DHT22;47773;53.174;6.614;2023-05-07T09:20:06;13.40;99.90
61841;DHT22;47773;53.174;6.614;2023-05-07T09:22:33;13.50;99.90
61841;DHT22;47773;53.174;6.614;2023-05-07T09:24:59;13.60;99.90
61841;DHT22;47773;53.174;6.614;2023-05-07T09:27:25;13.60;99.90
61841;DHT22;47773;53.174;6.614;2023-05-07T09:29:51;13.60;99.90
61841;DHT22;47773;53.174;6.614;2023-05-07T09:32:17;13.60;99.90
61841;DHT22;47773;53.174;6.614;2023-05-07T09:34:43;13.70;99.90
61841;DHT22;47773;53.174;6.614;2023-05-07T09:37:09;13.70;99.90
61841;DHT22;47773;53.174;6.614;2023-05-07T09:39:45;13.70;99.90
61841;DHT22;47773;53.174;6.614;2023-05-07T09:42:11;13.80;99.90
61841;DHT22;47773;53.174;6.614;2023-05-07T09:44:38;13.80;99.90
61841;DHT22;47773;53.174;6.614;2023-05-07T09:47:08;13.90;99.90
61841;DHT22;47773;53.174;6.614;2023-05-07T09:53:16;14.10;99.90
61841;DHT22;47773;53.174;6.614;2023-05-07T09:55:43;14.20;99.90
61841;DHT22;47773;53.174;6.614;2023-05-07T09:58:09;14.30;99.90
61841;DHT22;47773;53.174;6.614;2023-05-07T10:00:37;14.40;99.90
61841;DHT22;47773;53.174;6.614;2023-05-07T10:03:06;14.40;99.90
61841;DHT22;47773;53.174;6.614;2023-05-07T10:05:32;14.50;99.90
61841;DHT22;47773;53.174;6.614;2023-05-07T10:07:59;14.40;99.90
61841;DHT22;47773;53.174;6.614;2023-05-07T10:10:27;14.30;99.90
61841;DHT22;47773;53.174;6.614;2023-05-07T10:12:53;14.40;99.90
61841;DHT22;47773;53.174;6.614;2023-05-07T10:15:19;14.40;99.90
61841;DHT22;47773;53.174;6.614;2023-05-07T10:17:45;14.40;99.90
61841;DHT22;47773;53.174;6.614;2023-05-07T10:20:12;14.40;99.90
61841;DHT22;47773;53.174;6.614;2023-05-07T10:22:41;14.40;99.90
61841;DHT22;47773;53.174;6.614;2023-05-07T10:25:23;14.50;99.90
61841;DHT22;47773;53.174;6.614;2023-05-07T10:27:52;14.50;99.90
61841;DHT22;47773;53.174;6.614;2023-05-07T10:30:44;14.50;99.90
61841;DHT22;47773;53.174;6.614;2023-05-07T10:33:11;14.60;99.90
61841;DHT22;47773;53.174;6.614;2023-05-07T10:35:41;14.60;99.90
61841;DHT22;47773;53.174;6.614;2023-05-07T10:38:08;14.70;99.90
61841;DHT22;47773;53.174;6.614;2023-05-07T10:40:34;14.70;99.90
61841;DHT22;47773;53.174;6.614;2023-05-07T10:43:02;14.60;99.90
61841;DHT22;47773;53.174;6.614;2023-05-07T10:45:30;14.60;99.90
61841;DHT22;47773;53.174;6.614;2023-05-07T10:48:15;14.60;99.90
61841;DHT22;47773;53.174;6.614;2023-05-07T10:50:42;14.80;99.90
61841;DHT22;47773;53.174;6.614;2023-05-07T10:55:47;15.20;99.90
61841;DHT22;47773;53.174;6.614;2023-05-07T10:58:27;15.40;99.90
61841;DHT22;47773;53.174;6.614;2023-05-07T11:01:01;15.50;99.90
61841;DHT22;47773;53.174;6.614;2023-05-07T11:03:27;15.50;99.90
61841;DHT22;47773;53.174;6.614;2023-05-07T11:08:55;15.70;99.90
61841;DHT22;47773;53.174;6.614;2023-05-07T11:11:44;15.80;99.90
61841;DHT22;47773;53.174;6.614;2023-05-07T11:14:09;16.00;99.90
61841;DHT22;47773;53.174;6.614;2023-05-07T11:16:35;16.20;99.90
61841;DHT22;47773;53.174;6.614;2023-05-07T11:19:02;16.30;99.90
61841;DHT22;47773;53.174;6.614;2023-05-07T11:21:41;16.30;99.90
61841;DHT22;47773;53.174;6.614;2023-05-07T11:24:10;16.40;99.90
61841;DHT22;47773;53.174;6.614;2023-05-07T11:26:47;16.40;99.90
61841;DHT22;47773;53.174;6.614;2023-05-07T11:29:15;16.40;99.90
61841;DHT22;47773;53.174;6.614;2023-05-07T11:31:41;16.40;99.90
61841;DHT22;47773;53.174;6.614;2023-05-07T11:34:07;16.60;99.90
61841;DHT22;47773;53.174;6.614;2023-05-07T11:36:33;16.70;99.90
61841;DHT22;47773;53.174;6.614;2023-05-07T11:38:59;16.70;99.90
61841;DHT22;47773;53.174;6.614;2023-05-07T11:41:35;17.00;99.90
61841;DHT22;47773;53.174;6.614;2023-05-07T11:44:02;17.00;99.90
61841;DHT22;47773;53.174;6.614;2023-05-07T11:46:28;16.90;99.90
61841;DHT22;47773;53.174;6.614;2023-05-07T11:48:55;16.70;99.90
61841;DHT22;47773;53.174;6.614;2023-05-07T11:51:23;16.70;99.90
61841;DHT22;47773;53.174;6.614;2023-05-07T11:53:50;16.70;99.90
61841;DHT22;47773;53.174;6.614;2023-05-07T11:56:17;17.10;99.90
61841;DHT22;47773;53.174;6.614;2023-05-07T11:58:44;17.50;99.90
61841;DHT22;47773;53.174;6.614;2023-05-07T12:01:12;17.60;99.90
61841;DHT22;47773;53.174;6.614;2023-05-07T12:03:40;17.70;99.90
61841;DHT22;47773;53.174;6.614;2023-05-07T12:06:11;17.60;99.90
61841;DHT22;47773;53.174;6.614;2023-05-07T12:08:39;17.70;99.90
61841;DHT22;47773;53.174;6.614;2023-05-07T12:11:14;17.70;99.90
61841;DHT22;47773;53.174;6.614;2023-05-07T12:13:41;17.60;99.90
61841;DHT22;47773;53.174;6.614;2023-05-07T12:16:07;17.60;99.90
61841;DHT22;47773;53.174;6.614;2023-05-07T12:18:34;17.40;99.90
61841;DHT22;47773;53.174;6.614;2023-05-07T12:21:00;17.30;99.90
61841;DHT22;47773;53.174;6.614;2023-05-07T12:23:26;17.30;99.90
61841;DHT22;47773;53.174;6.614;2023-05-07T12:25:52;17.30;99.90
61841;DHT22;47773;53.174;6.614;2023-05-07T12:28:19;17.40;99.90
61841;DHT22;47773;53.174;6.614;2023-05-07T12:30:48;17.50;99.90
61841;DHT22;47773;53.174;6.614;2023-05-07T12:33:23;17.60;99.90
61841;DHT22;47773;53.174;6.614;2023-05-07T12:35:49;18.00;99.90
61841;DHT22;47773;53.174;6.614;2023-05-07T12:38:16;18.10;99.90
61841;DHT22;47773;53.174;6.614;2023-05-07T12:40:47;18.30;99.90
61841;DHT22;47773;53.174;6.614;2023-05-07T12:43:27;18.10;99.90
61841;DHT22;47773;53.174;6.614;2023-05-07T12:45:55;18.00;99.90
61841;DHT22;47773;53.174;6.614;2023-05-07T12:48:21;18.40;99.90
61841;DHT22;47773;53.174;6.614;2023-05-07T12:50:51;18.40;99.90
61841;DHT22;47773;53.174;6.614;2023-05-07T12:53:21;18.50;99.90
61841;DHT22;47773;53.174;6.614;2023-05-07T12:55:51;18.40;99.90
61841;DHT22;47773;53.174;6.614;2023-05-07T12:58:20;18.40;99.90
61841;DHT22;47773;53.174;6.614;2023-05-07T13:00:48;18.50;99.90
61841;DHT22;47773;53.174;6.614;2023-05-07T13:03:26;18.50;99.90
61841;DHT22;47773;53.174;6.614;2023-05-07T13:05:53;18.50;99.90
61841;DHT22;47773;53.174;6.614;2023-05-07T13:08:27;18.60;99.90
61841;DHT22;47773;53.174;6.614;2023-05-07T13:10:53;18.70;99.90
61841;DHT22;47773;53.174;6.614;2023-05-07T13:13:20;18.70;99.90
61841;DHT22;47773;53.174;6.614;2023-05-07T13:15:47;18.70;99.90
61841;DHT22;47773;53.174;6.614;2023-05-07T13:18:12;18.80;99.90
61841;DHT22;47773;53.174;6.614;2023-05-07T13:20:38;18.90;99.90
61841;DHT22;47773;53.174;6.614;2023-05-07T13:23:04;19.00;99.90
61841;DHT22;47773;53.174;6.614;2023-05-07T13:25:30;18.90;99.90
61841;DHT22;47773;53.174;6.614;2023-05-07T13:27:59;18.90;99.90
61841;DHT22;47773;53.174;6.614;2023-05-07T13:30:25;18.90;99.90
61841;DHT22;47773;53.174;6.614;2023-05-07T13:32:52;18.90;99.90
61841;DHT22;47773;53.174;6.614;2023-05-07T13:35:17;18.90;99.90
61841;DHT22;47773;53.174;6.614;2023-05-07T13:37:43;18.70;99.90
61841;DHT22;47773;53.174;6.614;2023-05-07T13:40:09;18.70;99.90
61841;DHT22;47773;53.174;6.614;2023-05-07T13:42:35;18.80;99.90
61841;DHT22;47773;53.174;6.614;2023-05-07T13:45:00;18.80;99.90
61841;DHT22;47773;53.174;6.614;2023-05-07T13:47:28;18.70;99.90
61841;DHT22;47773;53.174;6.614;2023-05-07T13:49:54;18.70;99.90
61841;DHT22;47773;53.174;6.614;2023-05-07T13:52:19;18.60;99.90
61841;DHT22;47773;53.174;6.614;2023-05-07T13:54:45;18.70;99.90
61841;DHT22;47773;53.174;6.614;2023-05-07T13:57:11;18.80;99.90
61841;DHT22;47773;53.174;6.614;2023-05-07T13:59:37;18.80;99.90
61841;DHT22;47773;53.174;6.614;2023-05-07T14:02:02;18.80;99.90
61841;DHT22;47773;53.174;6.614;2023-05-07T14:04:28;18.90;99.90
61841;DHT22;47773;53.174;6.614;2023-05-07T14:06:54;19.00;99.90
61841;DHT22;47773;53.174;6.614;2023-05-07T14:09:19;19.00;99.90
61841;DHT22;47773;53.174;6.614;2023-05-07T14:11:45;19.00;99.90
61841;DHT22;47773;53.174;6.614;2023-05-07T14:14:13;18.90;99.90
61841;DHT22;47773;53.174;6.614;2023-05-07T14:16:38;18.90;99.90
61841;DHT22;47773;53.174;6.614;2023-05-07T14:19:04;18.70;99.90
61841;DHT22;47773;53.174;6.614;2023-05-07T14:21:30;18.70;99.90
61841;DHT22;47773;53.174;6.614;2023-05-07T14:23:56;18.80;99.90
61841;DHT22;47773;53.174;6.614;2023-05-07T14:26:22;18.70;99.90
61841;DHT22;47773;53.174;6.614;2023-05-07T14:28:48;18.70;99.90
61841;DHT22;47773;53.174;6.614;2023-05-07T14:31:14;18.80;99.90
61841;DHT22;47773;53.174;6.614;2023-05-07T14:33:40;18.80;99.90
61841;DHT22;47773;53.174;6.614;2023-05-07T14:36:06;18.70;99.90
61841;DHT22;47773;53.174;6.614;2023-05-07T14:38:32;18.80;99.90
61841;DHT22;47773;53.174;6.614;2023-05-07T14:40:58;18.90;99.90
61841;DHT22;47773;53.174;6.614;2023-05-07T14:43:24;19.00;99.90
61841;DHT22;47773;53.174;6.614;2023-05-07T14:45:49;19.10;99.90
61841;DHT22;47773;53.174;6.614;2023-05-07T14:48:15;19.10;99.90
61841;DHT22;47773;53.174;6.614;2023-05-07T14:50:42;19.20;99.90
61841;DHT22;47773;53.174;6.614;2023-05-07T14:53:07;19.10;99.90
61841;DHT22;47773;53.174;6.614;2023-05-07T14:55:34;18.90;99.90
61841;DHT22;47773;53.174;6.614;2023-05-07T14:58:00;18.70;99.90
61841;DHT22;47773;53.174;6.614;2023-05-07T15:00:26;18.50;99.90
61841;DHT22;47773;53.174;6.614;2023-05-07T15:02:51;18.50;99.90
61841;DHT22;47773;53.174;6.614;2023-05-07T15:05:17;18.50;99.90
61841;DHT22;47773;53.174;6.614;2023-05-07T15:07:44;18.50;99.90
61841;DHT22;47773;53.174;6.614;2023-05-07T15:10:10;18.60;99.90
61841;DHT22;47773;53.174;6.614;2023-05-07T15:12:36;18.60;99.90
61841;DHT22;47773;53.174;6.614;2023-05-07T15:15:02;18.70;99.90
61841;DHT22;47773;53.174;6.614;2023-05-07T15:17:28;18.70;99.90
61841;DHT22;47773;53.174;6.614;2023-05-07T15:19:53;18.80;99.90
61841;DHT22;47773;53.174;6.614;2023-05-07T15:22:19;18.70;99.90
61841;DHT22;47773;53.174;6.614;2023-05-07T15:24:46;18.80;99.90
61841;DHT22;47773;53.174;6.614;2023-05-07T15:27:12;18.80;99.90
61841;DHT22;47773;53.174;6.614;2023-05-07T15:29:38;18.80;99.90
61841;DHT22;47773;53.174;6.614;2023-05-07T15:32:03;18.70;99.90
61841;DHT22;47773;53.174;6.614;2023-05-07T15:34:29;18.70;99.90
61841;DHT22;47773;53.174;6.614;2023-05-07T15:36:56;18.70;99.90